createdAt,value
2024-03-06T00:01:59.591Z,73.04
2024-03-06T00:04:26.605Z,73.02
2024-03-06T00:06:55.280Z,72.93
2024-03-06T00:09:22.419Z,73.25
2024-03-06T00:11:49.383Z,72.94
2024-03-06T00:14:16.321Z,72.97
2024-03-06T00:16:44.182Z,72.73
2024-03-06T00:19:11.117Z,72.93
2024-03-06T00:21:37.984Z,73.02
2024-03-06T00:24:07.902Z,73.00
2024-03-06T00:26:35.343Z,73.33
2024-03-06T00:29:02.384Z,73.41
2024-03-06T00:31:29.357Z,73.30
2024-03-06T00:33:56.360Z,73.20
2024-03-06T00:36:23.992Z,73.07
2024-03-06T00:38:50.904Z,73.25
2024-03-06T00:41:17.792Z,73.16
2024-03-06T00:43:44.913Z,73.21
2024-03-06T00:46:12.174Z,73.33
2024-03-06T00:48:42.340Z,73.32
2024-03-06T00:51:09.383Z,73.15
2024-03-06T00:53:36.717Z,73.45
2024-03-06T00:56:04.521Z,73.72
2024-03-06T00:58:31.487Z,73.84
2024-03-06T01:00:59.716Z,73.77
2024-03-06T01:03:26.699Z,73.79
2024-03-06T01:05:54.634Z,73.83
2024-03-06T01:08:23.077Z,74.22
2024-03-06T01:10:49.977Z,74.14
2024-03-06T01:13:16.883Z,74.50
2024-03-06T01:15:43.748Z,74.56
2024-03-06T01:18:10.664Z,74.62
2024-03-06T01:20:38.364Z,74.75
2024-03-06T01:23:06.721Z,74.58
2024-03-06T01:25:34.225Z,74.75
2024-03-06T01:28:01.398Z,74.79
2024-03-06T01:30:28.315Z,75.15
2024-03-06T01:32:55.277Z,74.91
2024-03-06T01:35:22.235Z,75.18
2024-03-06T01:37:49.206Z,75.39
2024-03-06T01:40:16.401Z,75.40
2024-03-06T01:42:43.279Z,75.31
2024-03-06T01:45:10.354Z,75.10
2024-03-06T01:47:37.491Z,75.48
2024-03-06T01:50:10.432Z,75.20
2024-03-06T01:52:39.193Z,75.15
2024-03-06T01:55:06.752Z,75.22
2024-03-06T01:57:34.783Z,75.53
2024-03-06T02:00:05.525Z,75.71
2024-03-06T02:02:32.787Z,75.56
2024-03-06T02:05:01.525Z,75.50
2024-03-06T02:07:29.971Z,75.53
2024-03-06T02:09:56.854Z,75.59
2024-03-06T02:12:23.851Z,75.81
2024-03-06T02:14:50.983Z,76.00
2024-03-06T02:17:17.869Z,75.61
2024-03-06T02:19:45.437Z,75.51
2024-03-06T02:22:12.915Z,75.82
2024-03-06T02:24:45.414Z,76.08
2024-03-06T02:27:12.280Z,76.11
2024-03-06T02:29:39.736Z,76.13
2024-03-06T02:32:06.708Z,76.07
2024-03-06T02:34:33.778Z,76.23
2024-03-06T02:37:00.736Z,76.02
2024-03-06T02:39:28.027Z,76.45
2024-03-06T02:41:54.910Z,76.53
2024-03-06T02:44:21.960Z,76.39
2024-03-06T02:46:50.379Z,76.36
2024-03-06T02:49:18.167Z,76.27
2024-03-06T02:51:45.134Z,76.42
2024-03-06T02:54:12.127Z,76.33
2024-03-06T02:56:39.067Z,76.48
2024-03-06T02:59:06.120Z,76.49
2024-03-06T03:01:33.342Z,76.61
2024-03-06T03:04:00.254Z,76.65
2024-03-06T03:06:27.175Z,77.05
2024-03-06T03:08:54.062Z,77.04
2024-03-06T03:11:21.422Z,76.88
2024-03-06T03:13:48.377Z,77.06
2024-03-06T03:16:19.462Z,76.98
2024-03-06T03:18:46.802Z,77.03
2024-03-06T03:21:14.380Z,76.94
2024-03-06T03:23:41.451Z,77.10
2024-03-06T03:26:12.175Z,77.01
2024-03-06T03:28:43.034Z,77.13
2024-03-06T03:31:13.104Z,77.35
2024-03-06T03:33:40.673Z,77.18
2024-03-06T03:36:11.088Z,77.24
2024-03-06T03:38:39.831Z,77.32
2024-03-06T03:41:14.187Z,77.35
2024-03-06T03:43:41.915Z,77.51
2024-03-06T03:46:10.393Z,77.49
2024-03-06T03:48:38.694Z,77.40
2024-03-06T03:51:08.532Z,77.49
2024-03-06T03:53:36.094Z,77.58
2024-03-06T03:56:04.951Z,77.70
2024-03-06T03:58:32.071Z,77.77
2024-03-06T04:00:59.228Z,77.70
2024-03-06T04:03:26.268Z,78.04
2024-03-06T04:05:53.149Z,78.05
2024-03-06T04:08:20.186Z,77.89
2024-03-06T04:10:47.354Z,78.02
2024-03-06T04:13:16.223Z,78.37
2024-03-06T04:15:43.242Z,78.23
2024-03-06T04:18:10.270Z,78.05
2024-03-06T04:20:37.294Z,78.26
2024-03-06T04:23:04.446Z,78.06
2024-03-06T04:25:31.529Z,78.36
2024-03-06T04:27:58.532Z,78.09
2024-03-06T04:30:26.194Z,77.96
2024-03-06T04:32:53.143Z,78.31
2024-03-06T04:35:20.147Z,78.03
2024-03-06T04:37:47.189Z,78.29
2024-03-06T04:40:16.600Z,77.97
2024-03-06T04:42:43.526Z,77.80
2024-03-06T04:45:16.411Z,78.06
2024-03-06T04:47:44.138Z,77.89
2024-03-06T04:50:12.709Z,78.29
2024-03-06T04:52:39.840Z,78.21
2024-03-06T04:55:08.263Z,77.99
2024-03-06T04:57:36.097Z,78.14
2024-03-06T05:00:08.278Z,78.17
2024-03-06T05:59:03.326Z,80.43
2024-03-06T06:01:30.307Z,80.40
2024-03-06T06:03:57.337Z,80.06
2024-03-06T06:06:24.183Z,80.20
2024-03-06T06:08:51.166Z,80.27
2024-03-06T06:11:18.286Z,80.36
2024-03-06T06:13:45.194Z,80.43
2024-03-06T06:16:12.101Z,80.40
2024-03-06T06:18:39.037Z,80.02
2024-03-06T06:21:08.733Z,79.93
2024-03-06T06:23:38.754Z,80.01
2024-03-06T06:26:06.052Z,80.36
2024-03-06T06:28:33.106Z,80.18
2024-03-06T06:31:00.236Z,79.99
2024-03-06T06:33:27.186Z,79.88
2024-03-06T06:35:55.341Z,80.24
2024-03-06T06:38:22.226Z,80.28
2024-03-06T06:40:50.194Z,80.09
2024-03-06T06:43:17.076Z,80.19
2024-03-06T06:45:44.034Z,80.41
2024-03-06T06:48:11.017Z,80.15
2024-03-06T06:50:38.196Z,80.32
2024-03-06T06:53:06.132Z,80.02
2024-03-06T06:55:33.650Z,80.05
2024-03-06T06:58:00.587Z,80.31
2024-03-06T07:00:27.775Z,80.27
2024-03-06T07:02:54.691Z,80.19
2024-03-06T07:05:21.976Z,80.11
2024-03-06T07:07:51.880Z,80.40
2024-03-06T07:10:21.108Z,80.11
2024-03-06T07:12:48.542Z,79.91
2024-03-06T07:15:15.431Z,80.15
2024-03-06T07:17:42.446Z,80.25
2024-03-06T07:20:10.324Z,80.21
2024-03-06T07:22:37.253Z,79.94
2024-03-06T07:25:04.641Z,79.80
2024-03-06T07:27:31.507Z,79.88
2024-03-06T07:29:58.684Z,79.58
2024-03-06T07:32:26.726Z,79.60
2024-03-06T07:34:53.720Z,79.86
2024-03-06T07:37:20.824Z,79.75
2024-03-06T07:39:49.347Z,79.88
2024-03-06T07:42:19.306Z,79.61
2024-03-06T07:44:46.662Z,79.62
2024-03-06T07:47:16.097Z,79.77
2024-03-06T07:49:43.189Z,79.66
2024-03-06T07:52:10.452Z,79.38
2024-03-06T07:54:37.602Z,79.14
2024-03-06T07:57:04.962Z,79.43
2024-03-06T07:59:32.031Z,79.21
2024-03-06T08:01:59.052Z,79.24
2024-03-06T08:04:26.428Z,79.04
2024-03-06T08:06:53.444Z,79.15
2024-03-06T08:09:21.001Z,79.33
2024-03-06T08:11:48.031Z,79.56
2024-03-06T08:14:16.357Z,79.68
2024-03-06T08:16:43.758Z,79.42
2024-03-06T08:19:11.036Z,79.32
2024-03-06T08:21:37.993Z,79.31
2024-03-06T08:24:05.151Z,79.67
2024-03-06T08:26:33.223Z,79.33
2024-03-06T08:29:00.217Z,79.29
2024-03-06T08:31:27.213Z,79.59
2024-03-06T08:33:54.505Z,79.77
2024-03-06T08:36:22.445Z,79.53
2024-03-06T08:38:49.839Z,79.52
2024-03-06T08:41:16.759Z,79.56
2024-03-06T08:43:43.786Z,79.52
2024-03-06T08:46:10.873Z,79.44
2024-03-06T08:48:37.752Z,79.49
2024-03-06T08:51:11.912Z,79.54
2024-03-06T08:53:39.726Z,79.58
2024-03-06T08:56:07.869Z,79.46
2024-03-06T08:58:35.002Z,79.66
2024-03-06T09:01:02.756Z,79.63
2024-03-06T09:03:30.200Z,79.49
2024-03-06T09:05:57.596Z,79.41
2024-03-06T09:08:24.671Z,79.64
2024-03-06T09:10:51.680Z,79.53
2024-03-06T09:13:18.586Z,79.26
2024-03-06T09:15:45.469Z,79.67
2024-03-06T09:18:12.729Z,79.64
2024-03-06T09:20:39.738Z,79.22
2024-03-06T09:23:06.766Z,79.38
2024-03-06T09:25:34.125Z,79.39
2024-03-06T09:28:02.129Z,78.88
2024-03-06T09:30:29.498Z,79.33
2024-03-06T09:32:56.471Z,79.04
2024-03-06T09:35:23.631Z,78.90
2024-03-06T09:37:53.265Z,79.29
2024-03-06T09:40:24.305Z,79.14
2024-03-06T09:42:52.057Z,79.17
2024-03-06T09:45:21.206Z,78.82
2024-03-06T09:47:52.118Z,79.11
2024-03-06T09:50:23.754Z,78.87
2024-03-06T09:52:53.236Z,78.86
2024-03-06T09:55:20.108Z,78.74
2024-03-06T09:57:46.955Z,78.39
2024-03-06T10:00:14.853Z,78.24
2024-03-06T10:03:04.629Z,78.52
2024-03-06T10:05:32.304Z,78.20
2024-03-06T10:08:00.834Z,77.67
2024-03-06T10:10:28.177Z,77.61
2024-03-06T10:12:55.137Z,76.99
2024-03-06T10:15:22.920Z,76.79
2024-03-06T10:17:53.091Z,76.76
2024-03-06T10:20:23.707Z,76.29
2024-03-06T10:22:56.189Z,76.37
2024-03-06T10:25:25.783Z,76.26
2024-03-06T10:28:12.447Z,76.28
2024-03-06T10:30:43.977Z,76.08
2024-03-06T10:33:11.842Z,75.73
2024-03-06T10:35:39.246Z,75.50
2024-03-06T10:38:07.742Z,74.95
2024-03-06T10:40:39.045Z,74.99
2024-03-06T10:43:07.294Z,74.54
2024-03-06T10:45:50.528Z,74.05
2024-03-06T10:48:21.417Z,73.87
2024-03-06T10:50:50.304Z,73.32
2024-03-06T10:53:22.474Z,72.86
2024-03-06T10:55:52.524Z,72.96
2024-03-06T10:58:20.712Z,72.58
2024-03-06T11:00:49.017Z,72.86
2024-03-06T11:03:16.582Z,72.42
2024-03-06T11:05:45.230Z,71.88
2024-03-06T11:08:13.187Z,71.40
2024-03-06T11:10:41.483Z,70.78
2024-03-06T11:13:30.647Z,70.20
2024-03-06T11:16:02.725Z,69.53
2024-03-06T11:18:30.382Z,69.31
2024-03-06T11:21:04.253Z,69.24
2024-03-06T11:23:32.504Z,69.49
2024-03-06T11:26:07.421Z,69.71
2024-03-06T11:28:36.648Z,69.63
2024-03-06T11:31:04.207Z,69.97
2024-03-06T11:33:41.565Z,69.60
2024-03-06T11:36:30.350Z,69.50
2024-03-06T11:39:01.967Z,69.45
2024-03-06T11:41:31.252Z,68.69
2024-03-06T11:44:01.362Z,68.67
2024-03-06T11:46:47.675Z,68.02
2024-03-06T11:49:22.548Z,67.57
2024-03-06T11:51:50.159Z,66.76
2024-03-06T11:54:17.649Z,66.45
2024-03-06T11:56:48.648Z,66.53
2024-03-06T11:59:15.963Z,66.62
2024-03-06T12:01:43.178Z,66.94
2024-03-06T12:04:10.076Z,66.81
2024-03-06T12:06:38.214Z,66.87
2024-03-06T12:09:05.175Z,67.07
2024-03-06T12:11:32.767Z,66.39
2024-03-06T12:14:00.023Z,66.09
2024-03-06T12:16:26.946Z,65.80
2024-03-06T12:18:58.743Z,65.40
2024-03-06T12:21:30.670Z,65.42
2024-03-06T12:24:10.606Z,65.51
2024-03-06T12:26:38.425Z,65.50
2024-03-06T12:29:09.570Z,64.96
2024-03-06T12:31:38.670Z,64.79
2024-03-06T12:34:06.114Z,65.14
2024-03-06T12:36:34.164Z,65.03
2024-03-06T12:39:02.729Z,65.18
2024-03-06T12:41:29.977Z,64.84
2024-03-06T12:43:57.604Z,64.71
2024-03-06T12:46:25.178Z,64.45
2024-03-06T12:48:52.516Z,64.51
2024-03-06T12:51:19.515Z,63.43
2024-03-06T12:53:46.578Z,63.08
2024-03-06T12:56:13.723Z,62.02
2024-03-06T12:58:40.640Z,61.72
2024-03-06T13:01:09.019Z,61.79
2024-03-06T13:03:35.948Z,62.11
2024-03-06T13:06:03.815Z,62.08
2024-03-06T13:08:31.166Z,61.98
2024-03-06T13:10:58.145Z,61.27
2024-03-06T13:13:25.123Z,60.30
2024-03-06T13:15:52.915Z,59.79
2024-03-06T13:18:20.054Z,59.37
2024-03-06T13:20:47.196Z,59.53
2024-03-06T13:23:14.634Z,59.95
2024-03-06T13:25:41.695Z,60.21
2024-03-06T13:28:10.110Z,60.85
2024-03-06T13:30:37.049Z,61.27
2024-03-06T13:33:04.266Z,61.76
2024-03-06T13:35:31.225Z,61.84
2024-03-06T13:37:58.204Z,62.41
2024-03-06T13:40:27.275Z,62.63
2024-03-06T13:42:54.180Z,62.96
2024-03-06T13:45:21.252Z,63.15
2024-03-06T13:47:50.256Z,63.74
2024-03-06T13:50:18.437Z,63.76
2024-03-06T13:52:45.417Z,63.97
2024-03-06T13:55:12.554Z,63.88
2024-03-06T13:57:39.913Z,63.97
2024-03-06T14:00:13.722Z,64.36
2024-03-06T14:02:41.646Z,64.24
2024-03-06T14:05:08.814Z,63.95
2024-03-06T14:07:36.200Z,64.22
2024-03-06T14:10:06.353Z,64.64
2024-03-06T14:12:33.738Z,64.96
2024-03-06T14:15:00.636Z,65.05
2024-03-06T14:17:27.523Z,65.36
2024-03-06T14:19:54.430Z,65.52
2024-03-06T14:22:21.323Z,65.82
2024-03-06T14:24:48.256Z,65.72
2024-03-06T14:27:17.498Z,65.96
2024-03-06T14:29:44.810Z,66.03
2024-03-06T14:32:12.216Z,65.92
2024-03-06T14:34:39.141Z,66.23
2024-03-06T14:37:06.110Z,66.52
2024-03-06T14:39:33.037Z,66.50
2024-03-06T14:42:00.905Z,66.75
2024-03-06T14:44:27.945Z,66.74
2024-03-06T14:46:54.941Z,67.22
2024-03-06T14:49:21.798Z,67.94
2024-03-06T14:51:48.786Z,68.14
2024-03-06T14:54:15.668Z,68.05
2024-03-06T14:56:42.917Z,68.48
2024-03-06T14:59:10.087Z,68.19
2024-03-06T15:01:39.006Z,68.23
2024-03-06T15:04:06.332Z,68.74
2024-03-06T15:06:33.283Z,68.82
2024-03-06T15:09:00.295Z,68.54
2024-03-06T15:11:27.272Z,68.68
2024-03-06T15:13:54.256Z,68.52
2024-03-06T15:16:21.189Z,68.70
2024-03-06T15:18:50.050Z,68.71
2024-03-06T15:21:17.098Z,68.51
2024-03-06T15:23:44.118Z,68.59
2024-03-06T15:26:12.285Z,68.92
2024-03-06T15:28:39.184Z,68.76
2024-03-06T15:31:08.488Z,68.94
2024-03-06T15:33:35.404Z,69.05
2024-03-06T15:36:02.452Z,69.23
2024-03-06T15:38:29.463Z,69.27
2024-03-06T15:40:56.345Z,69.24
2024-03-06T15:43:23.928Z,69.38
2024-03-06T15:45:50.953Z,69.68
2024-03-06T15:48:18.145Z,69.79
2024-03-06T15:50:45.420Z,69.90
2024-03-06T15:53:13.164Z,70.22
2024-03-06T15:55:40.689Z,70.42
2024-03-06T15:58:07.865Z,70.94
2024-03-06T16:00:37.736Z,70.91
2024-03-06T16:03:05.853Z,70.98
2024-03-06T16:05:34.250Z,71.03
2024-03-06T16:08:05.523Z,71.28
2024-03-06T16:10:33.369Z,71.53
2024-03-06T16:13:00.503Z,71.45
2024-03-06T16:15:28.635Z,72.04
2024-03-06T16:17:56.093Z,71.92
2024-03-06T16:20:24.809Z,71.92
2024-03-06T16:22:51.860Z,72.25
2024-03-06T16:25:19.038Z,72.36
2024-03-06T16:27:47.102Z,72.74
2024-03-06T16:30:14.708Z,72.83
2024-03-06T16:32:42.015Z,72.94
2024-03-06T16:35:10.488Z,73.16
2024-03-06T16:37:38.238Z,73.39
2024-03-06T16:40:06.084Z,73.40
2024-03-06T16:42:33.548Z,73.62
2024-03-06T16:45:00.793Z,73.50
2024-03-06T16:47:28.196Z,73.97
2024-03-06T16:49:55.308Z,74.21
2024-03-06T16:52:23.938Z,74.08
2024-03-06T16:54:51.037Z,74.28
2024-03-06T16:57:18.217Z,74.53
2024-03-06T16:59:45.528Z,74.35
2024-03-06T17:02:14.294Z,74.72
2024-03-06T17:04:41.378Z,75.10
2024-03-06T17:07:11.618Z,75.07
2024-03-06T17:09:38.742Z,75.04
2024-03-06T17:12:06.241Z,75.46
2024-03-06T17:14:34.126Z,75.56
2024-03-06T17:17:04.602Z,75.54
2024-03-06T17:19:31.787Z,75.94
2024-03-06T17:21:59.185Z,76.00
2024-03-06T17:24:26.105Z,76.48
2024-03-06T17:26:53.004Z,76.61
2024-03-06T17:29:20.024Z,76.75
2024-03-06T17:31:47.926Z,76.66
2024-03-06T17:34:14.826Z,76.81
2024-03-06T17:36:43.575Z,77.20
2024-03-06T17:39:10.781Z,77.22
2024-03-06T17:41:37.701Z,77.39
2024-03-06T17:44:07.372Z,77.30
2024-03-06T17:46:34.339Z,77.64
2024-03-06T17:49:05.718Z,77.93
2024-03-06T17:51:33.963Z,77.85
2024-03-06T17:54:02.158Z,78.00
2024-03-06T17:56:29.109Z,78.42
2024-03-06T17:58:56.026Z,78.17
2024-03-06T18:01:25.122Z,78.55
2024-03-06T18:03:53.390Z,78.43
2024-03-06T18:06:21.098Z,78.70
2024-03-06T18:08:48.857Z,78.89
2024-03-06T18:11:15.976Z,79.12
2024-03-06T18:13:42.939Z,78.95
2024-03-06T18:16:11.022Z,79.28
2024-03-06T18:18:38.806Z,79.09
2024-03-06T18:21:06.182Z,79.06
2024-03-06T18:23:33.124Z,79.67
2024-03-06T18:26:00.746Z,79.62
2024-03-06T18:28:27.973Z,79.77
2024-03-06T18:30:55.922Z,79.92
2024-03-06T18:33:22.867Z,79.78
2024-03-06T18:35:49.856Z,80.22
2024-03-06T18:38:16.823Z,80.28
2024-03-06T18:40:43.835Z,80.45
2024-03-06T18:43:10.731Z,80.69
2024-03-06T18:45:39.158Z,80.59
2024-03-06T18:48:06.496Z,81.05
2024-03-06T18:50:33.667Z,81.17
2024-03-06T18:53:02.539Z,81.09
2024-03-06T18:55:29.969Z,81.30
2024-03-06T18:57:56.888Z,81.39
2024-03-06T19:00:24.281Z,81.53
2024-03-06T19:02:52.737Z,81.41
2024-03-06T19:05:20.615Z,81.58
2024-03-06T19:07:48.221Z,81.91
2024-03-06T19:10:15.142Z,81.78
2024-03-06T19:12:45.227Z,82.03
2024-03-06T19:15:12.227Z,82.05
2024-03-06T19:17:39.665Z,82.35
2024-03-06T19:20:07.771Z,82.58
2024-03-06T19:22:34.765Z,82.39
2024-03-06T19:25:02.494Z,82.91
2024-03-06T19:27:29.397Z,82.69
2024-03-06T19:29:56.367Z,82.54
2024-03-06T19:32:23.673Z,82.78
2024-03-06T19:34:51.028Z,82.70
2024-03-06T19:37:19.169Z,83.07
2024-03-06T19:39:46.026Z,82.92
2024-03-06T19:42:12.896Z,83.14
2024-03-06T19:44:40.272Z,83.21
2024-03-06T19:47:07.313Z,83.49
2024-03-06T19:49:35.166Z,83.22
2024-03-06T19:52:02.229Z,83.36
2024-03-06T19:54:30.705Z,83.52
2024-03-06T19:57:00.251Z,83.44
2024-03-06T19:59:27.276Z,83.46
2024-03-06T20:01:57.109Z,83.69
2024-03-06T20:04:24.848Z,84.07
2024-03-06T20:06:52.077Z,83.98
2024-03-06T20:09:19.003Z,84.23
2024-03-06T20:11:46.670Z,84.04
2024-03-06T20:14:14.329Z,84.14
2024-03-06T20:16:41.272Z,84.12
2024-03-06T20:19:08.454Z,84.42
2024-03-06T20:21:37.360Z,84.53
2024-03-06T20:24:04.884Z,84.45
2024-03-06T20:26:31.840Z,84.58
2024-03-06T20:28:59.320Z,84.71
2024-03-06T20:31:26.273Z,84.92
2024-03-06T20:33:54.411Z,84.94
2024-03-06T20:36:21.278Z,85.20
2024-03-06T20:38:48.715Z,85.30
2024-03-06T20:41:15.892Z,85.34
2024-03-06T20:43:43.041Z,85.85
2024-03-06T20:46:09.882Z,85.54
2024-03-06T20:48:37.230Z,85.51
2024-03-06T20:51:04.614Z,85.66
2024-03-06T20:53:31.583Z,86.16
2024-03-06T20:55:58.606Z,86.09
2024-03-06T20:58:26.510Z,86.27
2024-03-06T21:00:53.561Z,86.43
2024-03-06T21:03:20.518Z,86.45
2024-03-06T21:05:47.578Z,86.47
2024-03-06T21:08:14.698Z,86.41
2024-03-06T21:10:42.064Z,86.40
2024-03-06T21:13:09.027Z,86.61
2024-03-06T21:15:36.975Z,86.91
2024-03-06T21:18:05.927Z,86.73
2024-03-06T21:20:33.000Z,86.71
2024-03-06T21:23:01.314Z,86.94
2024-03-06T21:25:28.256Z,87.08
2024-03-06T21:27:55.940Z,87.21
2024-03-06T21:30:23.559Z,87.04
2024-03-06T21:32:50.577Z,87.58
2024-03-06T21:35:17.501Z,87.38
2024-03-06T21:37:44.418Z,87.75
2024-03-06T21:40:14.825Z,87.74
2024-03-06T21:42:43.497Z,88.07
2024-03-06T21:45:10.703Z,87.90
2024-03-06T21:47:37.784Z,87.96
2024-03-06T21:50:07.329Z,88.16
2024-03-06T21:52:35.118Z,87.94
2024-03-06T21:55:03.333Z,88.29
2024-03-06T21:57:30.232Z,88.39
2024-03-06T21:59:57.409Z,88.48
2024-03-06T22:02:24.608Z,88.71
2024-03-06T22:04:51.546Z,88.67
2024-03-06T22:07:19.540Z,88.53
2024-03-06T22:09:48.464Z,88.70
2024-03-06T22:12:15.900Z,88.84
2024-03-06T22:14:43.756Z,88.75
2024-03-06T22:17:13.356Z,89.18
2024-03-06T22:19:42.037Z,89.01
2024-03-06T22:22:09.051Z,89.28
2024-03-06T22:24:35.964Z,89.43
2024-03-06T22:27:02.999Z,89.58
2024-03-06T22:29:29.969Z,89.66
2024-03-06T22:31:56.934Z,89.45
2024-03-06T22:34:23.884Z,89.89
2024-03-06T22:36:51.518Z,90.04
2024-03-06T22:39:20.009Z,89.93
2024-03-06T22:41:46.994Z,89.87
2024-03-06T22:44:14.320Z,90.06
2024-03-06T22:46:50.283Z,90.48
2024-03-06T22:49:18.422Z,90.56
2024-03-06T22:51:45.403Z,90.48
2024-03-06T22:54:12.461Z,90.96
2024-03-06T22:56:41.097Z,90.75
2024-03-06T22:59:08.844Z,91.30
2024-03-06T23:01:36.035Z,91.00
2024-03-06T23:04:05.140Z,91.00
2024-03-06T23:06:32.098Z,91.28
2024-03-06T23:08:59.422Z,91.30
2024-03-06T23:11:26.576Z,91.46
2024-03-06T23:13:54.214Z,91.77
2024-03-06T23:16:21.133Z,91.38
2024-03-06T23:18:48.100Z,91.42
2024-03-06T23:21:16.232Z,91.78
2024-03-06T23:23:44.530Z,91.80
2024-03-06T23:26:11.591Z,91.88
2024-03-06T23:28:38.573Z,92.02
2024-03-06T23:31:06.709Z,91.90
2024-03-06T23:33:33.763Z,92.05
2024-03-06T23:36:00.837Z,91.95
2024-03-06T23:38:27.840Z,92.16
2024-03-06T23:40:55.240Z,92.00
2024-03-06T23:43:22.129Z,92.27
2024-03-06T23:45:49.059Z,91.91
2024-03-06T23:48:16.078Z,92.14
2024-03-06T23:50:43.045Z,92.08
2024-03-06T23:53:10.096Z,91.99
2024-03-06T23:55:37.040Z,92.14
2024-03-06T23:58:04.413Z,92.01
